SEKCJA WYDRUKÓW, pokaż »

METAR EPBY 230300Z 18010KT 9999 SCT007 BKN037 BKN046 09/06 Q0989=

METAR EPGD 230300Z 17013KT 7000 -RA SCT003 OVC006 07/06 Q0988 =

METAR EPKK 230300Z VRB01KT 9999 SCT052 08/04 Q0997 =

METAR EPKT 230300Z 20011KT 9999 -RA FEW030 SCT042 08/04 Q0996 =

METAR EPLB 230300Z 18009KT CAVOK 09/05 Q0998 =

METAR EPLL 230300Z 19006KT 130V230 9999 BKN037 OVC044 08/06 Q0994 =

METAR EPML 230300Z NIL=

METAR EPMO 230300Z 15007KT 9999 -RA BKN027 08/04 Q0994 =

METAR EPPO 230300Z 18009KT CAVOK 09/07 Q0989 =

METAR EPRA 230300Z 19009KT 9999 -RA BKN048 OVC058 08/05 Q0996=

METAR EPRZ 230300Z 20016KT 9999 -SHRA FEW033CB 09/04 Q0999 =

METAR EPSC 230300Z 18011KT 160V220 9999 FEW021 SCT029 BKN034 11/08
Q0985 =

METAR EPSY 230300Z 17010KT 130V200 9999 BKN031 07/04 Q0993=

METAR EPWA 230300Z 16011KT 9999 SCT035 09/04 Q0994 NOSIG=

METAR EPWR 230300Z 18008KT CAVOK 11/07 Q0992 =

METAR EPZG 230300Z NIL=
 METAR EPSC
Lokalizacja:EPSC Szczecin Goleniów
Czas:03:00 UTC
Średni kierunek wiatru:180 °
Średnia prędkość wiatru:11 węzłów
Kierunek wiatru zmienia się od:160 °
Kierunek wiatru zmienia się do:220 °
Widzialność:10 km i więcej
Pierwsza warstwa chmur:1/8 do 2/8, wysokość podstawy 2100 FT
Druga warstwa chmur:3/8 do 4/8, wysokość podstawy 2900 FT
Trzecia warstwa chmur:5/8 do 7/8, wysokość podstawy 3400 FT
Temperatura powietrza:11 °C
Temperatura punktu rosy:8 °C
Ciśnienie QNH:985 hPa